Time;durP1;ratioP1;P1;durP2;ratioP2;P2;SDS_P1;SDS_P2;PMS_P1;PMS_P2;Temp;Humidity;BMP_temperature;BMP_pressure;BME280_temperature;BME280_humidity;BME280_pressure;Samples;Min_cycle;Max_cycle;Signal;HPM_P1;HPM_P2
2022/11/20 00:00:56;;;;;;;10.15;9.10;;;;;;;;;;5073091;28;20191;-61
2022/11/20 00:03:24;;;;;;;9.73;8.43;;;;;;;;;;5073106;28;20233;-61
2022/11/20 00:05:51;;;;;;;11.98;10.40;;;;;;;;;;5073070;28;20677;-61
2022/11/20 00:08:18;;;;;;;11.32;9.30;;;;;;;;;;5072981;28;20199;-61
2022/11/20 00:10:46;;;;;;;15.10;9.55;;;;;;;;;;5072978;28;20277;-59
2022/11/20 00:13:14;;;;;;;11.90;9.75;;;;;;;;;;5072844;28;20277;-59
2022/11/20 00:15:41;;;;;;;11.15;8.98;;;;;;;;;;5072682;28;20239;-60
2022/11/20 00:18:08;;;;;;;11.13;9.85;;;;;;;;;;5072762;28;20195;-60
2022/11/20 00:20:35;;;;;;;11.75;9.00;;;;;;;;;;5072977;28;20562;-60
2022/11/20 00:23:02;;;;;;;12.10;9.05;;;;;;;;;;5072767;28;20208;-60
2022/11/20 00:25:29;;;;;;;13.38;9.55;;;;;;;;;;5072650;28;20222;-60
2022/11/20 00:27:58;;;;;;;14.02;9.40;;;;;;;;;;5072825;28;20199;-60
2022/11/20 00:30:25;;;;;;;16.45;10.85;;;;;;;;;;5072742;28;20187;-60
2022/11/20 00:32:52;;;;;;;13.38;9.43;;;;;;;;;;5072861;28;20283;-60
2022/11/20 00:35:19;;;;;;;11.65;10.38;;;;;;;;;;5072889;28;20199;-60
2022/11/20 00:37:47;;;;;;;11.90;10.15;;;;;;;;;;5072773;28;20267;-62
2022/11/20 00:40:14;;;;;;;13.13;9.95;;;;;;;;;;5072625;28;20205;-60
2022/11/20 00:42:41;;;;;;;10.35;9.23;;;;;;;;;;5072653;28;20237;-61
2022/11/20 00:45:10;;;;;;;12.63;9.50;;;;;;;;;;5072410;28;20309;-60
2022/11/20 00:47:37;;;;;;;11.63;10.10;;;;;;;;;;5072543;28;20230;-60
2022/11/20 00:50:04;;;;;;;14.05;10.75;;;;;;;;;;5072749;28;20198;-60
2022/11/20 00:52:31;;;;;;;13.52;9.43;;;;;;;;;;5072544;28;20198;-60
2022/11/20 00:54:59;;;;;;;12.77;10.18;;;;;;;;;;5072436;28;20214;-60
2022/11/20 00:57:26;;;;;;;15.00;10.77;;;;;;;;;;5072278;28;20686;-60
2022/11/20 00:59:53;;;;;;;16.65;11.23;;;;;;;;;;5072579;28;20196;-60
2022/11/20 01:02:21;;;;;;;13.27;10.27;;;;;;;;;;5075924;28;20234;-60
2022/11/20 01:04:48;;;;;;;13.05;10.52;;;;;;;;;;5076244;28;20304;-60
2022/11/20 01:07:16;;;;;;;13.00;10.27;;;;;;;;;;5076128;28;20213;-60
2022/11/20 01:09:43;;;;;;;12.13;9.52;;;;;;;;;;5075993;28;20202;-60
2022/11/20 01:12:10;;;;;;;12.10;10.10;;;;;;;;;;5075926;28;20240;-60
2022/11/20 01:14:37;;;;;;;14.50;10.02;;;;;;;;;;5076087;28;20285;-60
2022/11/20 01:17:04;;;;;;;14.30;10.65;;;;;;;;;;5076053;28;20281;-60
2022/11/20 01:19:33;;;;;;;14.15;10.80;;;;;;;;;;5075935;28;20191;-60
2022/11/20 01:22:00;;;;;;;14.75;11.00;;;;;;;;;;5075813;28;20672;-60
2022/11/20 01:24:27;;;;;;;13.38;10.00;;;;;;;;;;5075644;28;20242;-60
2022/11/20 01:26:54;;;;;;;14.75;10.90;;;;;;;;;;5075668;28;20235;-60
2022/11/20 01:29:21;;;;;;;12.63;9.65;;;;;;;;;;5075758;28;20190;-60
2022/11/20 01:31:49;;;;;;;13.00;10.05;;;;;;;;;;5075813;28;20678;-62
2022/11/20 01:34:18;;;;;;;13.40;10.70;;;;;;;;;;5075827;28;20247;-60
2022/11/20 01:36:46;;;;;;;11.63;9.93;;;;;;;;;;5075528;28;20365;-60
2022/11/20 01:39:15;;;;;;;12.73;10.48;;;;;;;;;;5075602;28;20225;-59
2022/11/20 01:44:46;;;;;;;12.73;10.43;;;;;;;;;;5075724;28;20261;-60
2022/11/20 01:47:15;;;;;;;15.63;11.18;;;;;;;;;;5075264;28;20228;-61
2022/11/20 01:49:44;;;;;;;14.18;11.18;;;;;;;;;;5075422;28;20661;-60
2022/11/20 01:52:16;;;;;;;13.32;10.30;;;;;;;;;;5075414;28;20273;-60
2022/11/20 01:54:46;;;;;;;12.65;9.52;;;;;;;;;;5075285;28;20195;-60
2022/11/20 01:57:14;;;;;;;15.27;10.73;;;;;;;;;;5075223;28;20198;-60
2022/11/20 01:59:44;;;;;;;15.38;11.40;;;;;;;;;;5075248;28;20190;-60
2022/11/20 02:02:11;;;;;;;14.73;10.48;;;;;;;;;;5074992;28;20191;-60
2022/11/20 02:04:38;;;;;;;12.20;10.57;;;;;;;;;;5075085;28;20219;-60
2022/11/20 02:07:06;;;;;;;11.73;10.05;;;;;;;;;;5075162;28;20197;-60
2022/11/20 02:09:34;;;;;;;14.45;9.88;;;;;;;;;;5075035;28;20187;-60
2022/11/20 02:12:02;;;;;;;13.93;10.43;;;;;;;;;;5074154;28;20553;-60
2022/11/20 02:14:29;;;;;;;14.07;10.75;;;;;;;;;;5075025;28;20649;-62
2022/11/20 02:16:56;;;;;;;13.13;11.18;;;;;;;;;;5075467;28;20190;-60
2022/11/20 02:19:24;;;;;;;13.80;10.23;;;;;;;;;;5074887;28;20202;-60
2022/11/20 02:21:57;;;;;;;12.27;10.70;;;;;;;;;;5074632;28;20199;-60
2022/11/20 02:24:25;;;;;;;18.10;9.60;;;;;;;;;;5074802;28;20197;-60
2022/11/20 02:26:54;;;;;;;13.75;10.40;;;;;;;;;;5074410;28;20191;-60
2022/11/20 02:29:27;;;;;;;13.25;11.10;;;;;;;;;;5074459;28;20191;-59
2022/11/20 02:31:55;;;;;;;17.33;11.60;;;;;;;;;;5074911;28;20250;-60
2022/11/20 02:34:22;;;;;;;16.75;11.23;;;;;;;;;;5074423;28;20194;-60
2022/11/20 02:36:50;;;;;;;16.67;11.95;;;;;;;;;;5074540;28;20194;-60
2022/11/20 02:39:18;;;;;;;15.85;11.10;;;;;;;;;;5074457;28;20251;-60
2022/11/20 02:41:46;;;;;;;12.63;10.55;;;;;;;;;;5074185;28;20190;-60
2022/11/20 02:44:14;;;;;;;14.30;10.80;;;;;;;;;;5074515;28;20190;-60
2022/11/20 02:46:41;;;;;;;11.80;9.57;;;;;;;;;;5074230;28;20621;-60
2022/11/20 02:49:08;;;;;;;14.98;11.98;;;;;;;;;;5074157;28;20194;-60
2022/11/20 02:51:35;;;;;;;13.90;10.63;;;;;;;;;;5074268;28;20612;-60
2022/11/20 02:54:02;;;;;;;17.75;11.35;;;;;;;;;;5074022;28;20198;-61
2022/11/20 02:56:30;;;;;;;14.23;11.43;;;;;;;;;;5074375;28;20272;-60
2022/11/20 02:58:59;;;;;;;17.00;11.48;;;;;;;;;;5074113;28;20202;-60
2022/11/20 03:01:26;;;;;;;11.98;10.20;;;;;;;;;;5074004;28;20191;-60
2022/11/20 03:03:54;;;;;;;14.40;10.45;;;;;;;;;;5073939;28;20194;-60
2022/11/20 03:06:21;;;;;;;13.93;11.35;;;;;;;;;;5073698;28;20272;-60
2022/11/20 03:08:49;;;;;;;14.27;10.50;;;;;;;;;;5073742;28;20199;-60
2022/11/20 03:11:16;;;;;;;13.48;10.52;;;;;;;;;;5074193;28;20286;-61
2022/11/20 03:13:44;;;;;;;16.60;12.38;;;;;;;;;;5073711;28;20285;-60
2022/11/20 03:16:13;;;;;;;12.82;10.60;;;;;;;;;;5073572;28;20641;-60
2022/11/20 03:18:40;;;;;;;15.52;12.43;;;;;;;;;;5073530;28;20192;-60
2022/11/20 03:21:08;;;;;;;14.07;11.02;;;;;;;;;;5073452;28;20194;-61
2022/11/20 03:23:35;;;;;;;13.10;10.23;;;;;;;;;;5073621;28;20194;-61
2022/11/20 03:26:09;;;;;;;11.88;9.90;;;;;;;;;;5073633;28;20276;-60
2022/11/20 03:28:37;;;;;;;11.05;9.95;;;;;;;;;;5073665;28;20280;-60
2022/11/20 03:31:08;;;;;;;17.63;10.80;;;;;;;;;;5073560;28;20187;-60
2022/11/20 03:33:37;;;;;;;13.57;9.27;;;;;;;;;;5073333;28;20272;-60
2022/11/20 03:36:06;;;;;;;12.80;10.82;;;;;;;;;;5073285;28;20271;-60
2022/11/20 03:38:33;;;;;;;16.48;10.77;;;;;;;;;;5073608;28;20670;-60
2022/11/20 03:41:01;;;;;;;14.43;10.80;;;;;;;;;;5073292;28;20233;-60
2022/11/20 03:43:28;;;;;;;13.77;10.52;;;;;;;;;;5073405;28;20191;-61
2022/11/20 03:45:56;;;;;;;13.52;10.05;;;;;;;;;;5072985;28;20672;-60
2022/11/20 03:48:23;;;;;;;11.95;9.40;;;;;;;;;;5073117;28;20229;-60
2022/11/20 03:50:51;;;;;;;13.50;10.38;;;;;;;;;;5073542;28;20196;-61
2022/11/20 03:53:19;;;;;;;12.55;9.95;;;;;;;;;;5073189;28;20272;-60
2022/11/20 03:55:46;;;;;;;14.15;10.43;;;;;;;;;;5073161;28;20264;-60
2022/11/20 03:58:14;;;;;;;13.95;11.13;;;;;;;;;;5073159;28;20198;-60
2022/11/20 04:00:41;;;;;;;14.82;11.25;;;;;;;;;;5073052;28;20191;-61
2022/11/20 04:03:08;;;;;;;13.05;10.82;;;;;;;;;;5072937;28;20226;-60
2022/11/20 04:05:35;;;;;;;16.08;10.93;;;;;;;;;;5072811;28;20652;-60
2022/11/20 04:08:04;;;;;;;13.48;9.73;;;;;;;;;;5073230;28;20194;-60
2022/11/20 04:10:31;;;;;;;13.00;10.93;;;;;;;;;;5072990;28;20190;-60
2022/11/20 04:12:58;;;;;;;14.98;9.68;;;;;;;;;;5072956;28;20569;-61
2022/11/20 04:15:25;;;;;;;14.38;10.30;;;;;;;;;;5072737;28;20279;-61
2022/11/20 04:17:53;;;;;;;11.82;9.77;;;;;;;;;;5073259;28;20596;-60
2022/11/20 04:20:20;;;;;;;14.00;10.98;;;;;;;;;;5073048;28;20197;-60
2022/11/20 04:22:47;;;;;;;12.18;10.32;;;;;;;;;;5072965;28;20202;-60
2022/11/20 04:25:15;;;;;;;13.45;10.25;;;;;;;;;;5072745;28;20191;-60
2022/11/20 04:27:43;;;;;;;12.90;10.55;;;;;;;;;;5072605;28;20732;-60
2022/11/20 04:30:10;;;;;;;12.38;9.85;;;;;;;;;;5072974;28;20612;-59
2022/11/20 04:32:37;;;;;;;16.95;10.30;;;;;;;;;;5072677;28;20194;-61
2022/11/20 04:35:04;;;;;;;12.82;10.68;;;;;;;;;;5072805;28;20661;-60
2022/11/20 04:37:32;;;;;;;14.15;10.30;;;;;;;;;;5076696;28;20786;-60
2022/11/20 04:39:59;;;;;;;12.80;9.38;;;;;;;;;;5076781;28;20273;-60
2022/11/20 04:42:31;;;;;;;10.77;9.60;;;;;;;;;;5076607;28;20190;-60
2022/11/20 04:44:58;;;;;;;11.60;9.73;;;;;;;;;;5076925;28;20186;-61
2022/11/20 04:47:25;;;;;;;14.07;10.27;;;;;;;;;;5076362;28;20223;-61
2022/11/20 04:49:53;;;;;;;12.40;9.43;;;;;;;;;;5076742;28;20189;-60
2022/11/20 04:52:20;;;;;;;13.07;10.38;;;;;;;;;;5076450;28;20195;-60
2022/11/20 04:54:47;;;;;;;11.90;10.05;;;;;;;;;;5076506;28;20594;-61
2022/11/20 04:57:15;;;;;;;13.07;10.23;;;;;;;;;;5076330;28;20198;-60
2022/11/20 04:59:44;;;;;;;10.65;9.55;;;;;;;;;;5076619;28;20195;-60
2022/11/20 05:02:13;;;;;;;12.93;10.35;;;;;;;;;;5076295;28;20611;-60
2022/11/20 05:04:41;;;;;;;15.60;10.68;;;;;;;;;;5076233;28;20189;-60
2022/11/20 05:07:08;;;;;;;13.88;9.35;;;;;;;;;;5076071;28;20693;-60
2022/11/20 05:09:35;;;;;;;13.38;9.73;;;;;;;;;;5076006;28;20198;-60
2022/11/20 05:12:02;;;;;;;11.40;9.70;;;;;;;;;;5076013;28;20273;-60
2022/11/20 05:14:30;;;;;;;13.40;10.93;;;;;;;;;;5076158;28;20236;-60
2022/11/20 05:16:58;;;;;;;12.85;11.07;;;;;;;;;;5075998;28;20225;-61
2022/11/20 05:19:25;;;;;;;12.95;10.38;;;;;;;;;;5075880;28;20696;-60
2022/11/20 05:21:52;;;;;;;10.82;9.73;;;;;;;;;;5075927;28;20195;-60
2022/11/20 05:24:20;;;;;;;15.20;10.20;;;;;;;;;;5075813;28;20304;-60
2022/11/20 05:26:47;;;;;;;13.70;10.52;;;;;;;;;;5075865;28;20213;-60
2022/11/20 05:29:14;;;;;;;13.02;11.00;;;;;;;;;;5075980;28;20191;-60
2022/11/20 05:31:42;;;;;;;13.50;9.68;;;;;;;;;;5075788;28;20186;-60
2022/11/20 05:34:10;;;;;;;12.52;9.27;;;;;;;;;;5075944;28;20207;-60
2022/11/20 05:36:37;;;;;;;15.13;10.23;;;;;;;;;;5075579;28;20191;-60
2022/11/20 05:39:05;;;;;;;16.67;10.77;;;;;;;;;;5075504;28;20645;-60
2022/11/20 05:41:32;;;;;;;10.18;8.73;;;;;;;;;;5075576;28;20217;-60
2022/11/20 05:43:59;;;;;;;13.40;10.13;;;;;;;;;;5075564;28;20189;-60
2022/11/20 05:46:27;;;;;;;14.20;11.50;;;;;;;;;;5074810;28;20214;-60
2022/11/20 05:48:53;;;;;;;11.70;9.85;;;;;;;;;;5074680;28;20193;-60
2022/11/20 05:51:22;;;;;;;12.95;10.25;;;;;;;;;;5075313;28;20298;-60
2022/11/20 05:53:49;;;;;;;13.15;10.45;;;;;;;;;;5075478;28;20329;-60
2022/11/20 05:56:17;;;;;;;12.35;9.90;;;;;;;;;;5075395;28;20226;-60
2022/11/20 05:58:44;;;;;;;12.98;10.00;;;;;;;;;;5075268;28;20192;-60
2022/11/20 06:01:12;;;;;;;14.38;10.95;;;;;;;;;;5075147;28;20186;-60
2022/11/20 06:03:40;;;;;;;12.13;9.68;;;;;;;;;;5075042;28;20696;-60
2022/11/20 06:06:07;;;;;;;13.27;9.45;;;;;;;;;;5075212;28;20233;-60
2022/11/20 06:08:36;;;;;;;13.82;10.80;;;;;;;;;;5075435;28;20278;-60
2022/11/20 06:11:07;;;;;;;14.00;9.50;;;;;;;;;;5075245;28;20593;-60
2022/11/20 06:13:34;;;;;;;14.38;10.65;;;;;;;;;;5075017;28;20541;-60
2022/11/20 06:16:02;;;;;;;14.38;10.70;;;;;;;;;;5074943;28;20241;-61
2022/11/20 06:18:29;;;;;;;12.23;9.60;;;;;;;;;;5074746;28;20198;-60
2022/11/20 06:21:01;;;;;;;13.00;10.43;;;;;;;;;;5075019;28;20705;-60
2022/11/20 06:23:29;;;;;;;14.65;11.40;;;;;;;;;;5074664;28;20279;-60
2022/11/20 06:25:57;;;;;;;14.13;9.90;;;;;;;;;;5074535;28;20672;-60
2022/11/20 06:28:24;;;;;;;15.55;10.25;;;;;;;;;;5074530;28;20194;-60
2022/11/20 06:30:51;;;;;;;13.30;10.98;;;;;;;;;;5074590;28;20229;-60
2022/11/20 06:33:18;;;;;;;15.25;11.63;;;;;;;;;;5074626;28;20198;-60
2022/11/20 06:35:46;;;;;;;14.07;9.98;;;;;;;;;;5074582;28;20191;-60
2022/11/20 06:38:13;;;;;;;13.50;9.45;;;;;;;;;;5074571;28;20646;-60
2022/11/20 06:40:41;;;;;;;11.68;10.23;;;;;;;;;;5074336;28;20714;-60
2022/11/20 06:43:09;;;;;;;13.30;10.02;;;;;;;;;;5074239;28;20195;-60
2022/11/20 06:45:37;;;;;;;14.00;11.00;;;;;;;;;;5074472;28;20202;-60
2022/11/20 06:48:04;;;;;;;13.30;10.32;;;;;;;;;;5074141;28;20250;-60
2022/11/20 06:50:31;;;;;;;13.70;9.70;;;;;;;;;;5074004;28;20604;-60
2022/11/20 06:53:01;;;;;;;15.90;11.23;;;;;;;;;;5074043;28;20651;-60
2022/11/20 06:55:29;;;;;;;13.88;11.50;;;;;;;;;;5074158;28;20194;-60
2022/11/20 06:57:56;;;;;;;13.30;10.60;;;;;;;;;;5073614;28;20230;-60
2022/11/20 07:00:25;;;;;;;14.18;10.65;;;;;;;;;;5074086;28;20245;-60
2022/11/20 07:02:52;;;;;;;12.02;10.50;;;;;;;;;;5074202;28;20194;-60
2022/11/20 07:05:19;;;;;;;13.88;11.30;;;;;;;;;;5073870;28;20194;-60
2022/11/20 07:07:46;;;;;;;13.68;10.95;;;;;;;;;;5073653;28;20218;-60
2022/11/20 07:10:13;;;;;;;13.70;10.43;;;;;;;;;;5073642;28;20208;-60
2022/11/20 07:12:40;;;;;;;16.58;11.52;;;;;;;;;;5073559;28;20249;-60
2022/11/20 07:15:08;;;;;;;13.75;11.38;;;;;;;;;;5073839;28;20189;-60
2022/11/20 07:17:36;;;;;;;13.40;10.85;;;;;;;;;;5073737;28;20194;-60
2022/11/20 07:20:03;;;;;;;11.18;9.75;;;;;;;;;;5073748;28;20631;-60
2022/11/20 07:22:30;;;;;;;16.73;11.00;;;;;;;;;;5073552;28;20194;-60
2022/11/20 07:24:58;;;;;;;14.40;11.05;;;;;;;;;;5073872;28;20201;-60
2022/11/20 07:27:25;;;;;;;13.77;11.23;;;;;;;;;;5073548;28;20631;-60
2022/11/20 07:29:52;;;;;;;15.35;11.43;;;;;;;;;;5073567;28;20646;-60
2022/11/20 07:32:19;;;;;;;15.85;11.60;;;;;;;;;;5073425;28;20294;-60
2022/11/20 07:34:48;;;;;;;13.10;10.68;;;;;;;;;;5073549;28;20230;-60
2022/11/20 07:37:15;;;;;;;14.85;11.40;;;;;;;;;;5073261;28;20196;-61
2022/11/20 07:39:43;;;;;;;13.20;10.20;;;;;;;;;;5073283;28;20217;-60
2022/11/20 07:42:11;;;;;;;15.50;11.80;;;;;;;;;;5073459;28;20198;-60
2022/11/20 07:44:39;;;;;;;13.63;11.30;;;;;;;;;;5073181;28;20190;-60
2022/11/20 07:47:06;;;;;;;14.55;11.45;;;;;;;;;;5073109;28;20223;-60
2022/11/20 07:49:33;;;;;;;20.85;13.88;;;;;;;;;;5073178;28;20269;-60
2022/11/20 07:52:01;;;;;;;14.88;11.40;;;;;;;;;;5073028;28;20206;-60
2022/11/20 07:54:29;;;;;;;17.42;12.18;;;;;;;;;;5073256;28;20197;-60
2022/11/20 07:56:56;;;;;;;16.02;12.05;;;;;;;;;;5073193;28;20248;-60
2022/11/20 07:59:23;;;;;;;18.98;12.50;;;;;;;;;;5073146;28;20191;-60
2022/11/20 08:01:50;;;;;;;14.52;10.65;;;;;;;;;;5073030;28;20601;-60
2022/11/20 08:04:17;;;;;;;18.13;10.90;;;;;;;;;;5072920;28;20199;-60
2022/11/20 08:06:44;;;;;;;12.63;10.85;;;;;;;;;;5072758;28;20221;-62
2022/11/20 08:09:13;;;;;;;14.50;11.18;;;;;;;;;;5073032;28;20193;-61
2022/11/20 08:14:27;;;;;;;12.95;9.88;;;;;;;;;;5073122;28;20195;-60
2022/11/20 08:16:54;;;;;;;13.40;10.05;;;;;;;;;;5073070;28;20186;-61
2022/11/20 08:19:21;;;;;;;13.40;10.90;;;;;;;;;;5072805;28;20312;-61
2022/11/20 08:21:48;;;;;;;14.00;10.63;;;;;;;;;;5072958;28;20218;-60
2022/11/20 08:24:17;;;;;;;12.90;10.75;;;;;;;;;;5073069;28;20190;-61
2022/11/20 08:26:44;;;;;;;14.15;10.90;;;;;;;;;;5072598;28;20299;-61
2022/11/20 08:29:11;;;;;;;15.45;10.75;;;;;;;;;;5072741;28;20720;-60
2022/11/20 08:31:38;;;;;;;15.25;10.85;;;;;;;;;;5072404;28;20191;-60
2022/11/20 08:34:05;;;;;;;15.68;11.55;;;;;;;;;;5072913;28;20194;-61
2022/11/20 08:36:34;;;;;;;17.30;13.60;;;;;;;;;;5072829;28;20248;-61
2022/11/20 08:39:01;;;;;;;18.13;12.80;;;;;;;;;;5072569;28;20199;-60
2022/11/20 08:41:32;;;;;;;16.20;12.95;;;;;;;;;;5072677;28;20195;-61
2022/11/20 08:44:01;;;;;;;16.60;12.40;;;;;;;;;;5072479;28;20286;-61
2022/11/20 08:46:29;;;;;;;15.85;12.20;;;;;;;;;;5072561;28;20655;-61
2022/11/20 08:48:56;;;;;;;15.02;12.07;;;;;;;;;;5072485;28;20195;-61
2022/11/20 08:51:23;;;;;;;15.32;12.00;;;;;;;;;;5072564;28;20192;-62
2022/11/20 08:53:50;;;;;;;17.02;12.07;;;;;;;;;;5072521;28;20195;-61
2022/11/20 08:56:17;;;;;;;14.18;10.82;;;;;;;;;;5072419;28;20198;-61
2022/11/20 08:58:46;;;;;;;14.95;12.10;;;;;;;;;;5072255;28;20204;-61
2022/11/20 09:01:13;;;;;;;14.48;11.77;;;;;;;;;;5072440;28;20282;-61
2022/11/20 09:03:40;;;;;;;15.73;11.57;;;;;;;;;;5072617;28;20563;-61
2022/11/20 09:06:08;;;;;;;15.38;11.25;;;;;;;;;;5072297;28;20187;-59
2022/11/20 09:08:36;;;;;;;15.68;11.32;;;;;;;;;;5072513;28;20288;-61
2022/11/20 09:11:03;;;;;;;13.93;10.15;;;;;;;;;;5072296;28;20198;-61
2022/11/20 09:13:31;;;;;;;15.80;10.48;;;;;;;;;;5072238;28;20190;-61
2022/11/20 09:16:01;;;;;;;15.88;12.25;;;;;;;;;;5072400;28;20199;-61
2022/11/20 09:18:31;;;;;;;15.35;12.30;;;;;;;;;;5072469;28;20194;-61
2022/11/20 09:20:58;;;;;;;16.40;11.90;;;;;;;;;;5072361;28;20199;-61
2022/11/20 09:23:25;;;;;;;20.45;12.25;;;;;;;;;;5075818;28;20188;-62
2022/11/20 09:25:55;;;;;;;17.00;12.45;;;;;;;;;;5075807;28;20193;-61
2022/11/20 09:28:22;;;;;;;12.77;11.25;;;;;;;;;;5075800;28;20570;-61
2022/11/20 09:30:49;;;;;;;12.45;11.07;;;;;;;;;;5075862;28;20198;-61
2022/11/20 09:33:18;;;;;;;15.75;12.40;;;;;;;;;;5075592;28;20194;-61
2022/11/20 09:35:45;;;;;;;15.23;11.57;;;;;;;;;;5075631;28;20221;-61
2022/11/20 09:38:13;;;;;;;15.75;10.82;;;;;;;;;;5075532;28;20290;-61
2022/11/20 09:40:42;;;;;;;16.38;12.32;;;;;;;;;;5075714;28;20727;-61
2022/11/20 09:43:12;;;;;;;13.13;11.68;;;;;;;;;;5075466;28;20625;-60
2022/11/20 09:45:42;;;;;;;13.30;10.80;;;;;;;;;;5075361;28;20191;-60
2022/11/20 09:48:40;;;;;;;14.27;11.85;;;;;;;;;;5075277;28;20777;-63
2022/11/20 09:51:10;;;;;;;18.13;11.68;;;;;;;;;;5075443;28;20225;-60
2022/11/20 09:53:43;;;;;;;17.52;13.50;;;;;;;;;;5075240;28;20190;-60
2022/11/20 09:56:11;;;;;;;17.38;14.50;;;;;;;;;;5074654;28;20454;-61
2022/11/20 09:58:41;;;;;;;18.13;13.57;;;;;;;;;;5075342;28;20191;-60
2022/11/20 10:01:11;;;;;;;17.65;13.95;;;;;;;;;;5074507;28;20454;-60
2022/11/20 10:03:42;;;;;;;14.88;12.50;;;;;;;;;;5075356;28;20230;-60
2022/11/20 10:06:13;;;;;;;16.77;13.45;;;;;;;;;;5075191;28;20232;-60
2022/11/20 10:08:43;;;;;;;15.77;12.55;;;;;;;;;;5074894;28;20269;-59
2022/11/20 10:11:28;;;;;;;14.43;12.05;;;;;;;;;;5081329;28;20214;-60
2022/11/20 10:14:01;;;;;;;17.58;13.05;;;;;;;;;;5087648;28;20178;-60
2022/11/20 10:16:41;;;;;;;16.48;12.40;;;;;;;;;;5095362;28;20196;-60
2022/11/20 10:19:16;;;;;;;17.73;13.82;;;;;;;;;;5095100;28;20244;-59
2022/11/20 10:21:50;;;;;;;15.93;12.52;;;;;;;;;;5094944;28;20270;-60
2022/11/20 10:24:49;;;;;;;16.05;13.13;;;;;;;;;;5094801;28;20197;-60
2022/11/20 10:27:26;;;;;;;17.38;12.10;;;;;;;;;;5093072;28;20221;-60
2022/11/20 10:30:00;;;;;;;20.65;14.10;;;;;;;;;;5094863;28;20645;-60
2022/11/20 10:32:32;;;;;;;16.98;12.25;;;;;;;;;;5094635;28;20278;-61
2022/11/20 10:35:03;;;;;;;17.90;12.23;;;;;;;;;;5094606;28;20190;-62
2022/11/20 10:37:31;;;;;;;15.23;12.15;;;;;;;;;;5094696;28;20194;-61
2022/11/20 10:40:02;;;;;;;13.23;11.75;;;;;;;;;;5094830;28;20203;-61
2022/11/20 10:42:32;;;;;;;17.35;13.30;;;;;;;;;;5094605;28;20190;-61
2022/11/20 10:45:04;;;;;;;18.95;13.65;;;;;;;;;;5094650;28;20194;-60
2022/11/20 10:47:32;;;;;;;17.20;13.10;;;;;;;;;;5094411;28;20596;-60
2022/11/20 10:50:04;;;;;;;19.27;13.60;;;;;;;;;;5094439;28;20191;-60
2022/11/20 10:52:34;;;;;;;16.40;12.48;;;;;;;;;;5094587;28;20608;-61
2022/11/20 10:55:06;;;;;;;18.80;12.90;;;;;;;;;;5094279;28;20247;-60
2022/11/20 10:57:43;;;;;;;21.25;13.38;;;;;;;;;;5094302;28;20221;-61
2022/11/20 11:00:12;;;;;;;19.00;12.30;;;;;;;;;;5094382;28;20514;-61
2022/11/20 11:02:43;;;;;;;14.90;11.85;;;;;;;;;;5092951;28;20197;-60
2022/11/20 11:05:18;;;;;;;16.25;11.98;;;;;;;;;;5094277;28;20194;-60
2022/11/20 11:07:46;;;;;;;16.85;12.40;;;;;;;;;;5093963;28;20210;-61
2022/11/20 11:10:16;;;;;;;16.85;12.52;;;;;;;;;;5094325;28;20241;-60
2022/11/20 11:12:45;;;;;;;17.20;12.15;;;;;;;;;;5094183;28;20197;-60
2022/11/20 11:15:15;;;;;;;18.33;14.38;;;;;;;;;;5094198;28;20528;-61
2022/11/20 11:17:48;;;;;;;16.48;13.13;;;;;;;;;;5094321;28;20190;-61
2022/11/20 11:20:21;;;;;;;16.02;12.00;;;;;;;;;;5093827;28;20289;-61
2022/11/20 11:22:49;;;;;;;18.38;13.80;;;;;;;;;;5094107;28;20239;-61
2022/11/20 11:25:29;;;;;;;13.52;10.85;;;;;;;;;;5094089;28;20286;-61
2022/11/20 11:27:57;;;;;;;16.88;12.95;;;;;;;;;;5093694;28;20758;-60
2022/11/20 11:30:25;;;;;;;15.90;13.30;;;;;;;;;;5093717;28;20601;-60
2022/11/20 11:33:03;;;;;;;18.80;13.25;;;;;;;;;;5093718;28;20653;-61
2022/11/20 11:35:32;;;;;;;16.90;12.98;;;;;;;;;;5093868;28;20226;-61
2022/11/20 11:38:04;;;;;;;18.17;12.93;;;;;;;;;;5093790;28;20655;-60
2022/11/20 11:40:33;;;;;;;16.48;12.68;;;;;;;;;;5093487;28;20673;-60
2022/11/20 11:43:01;;;;;;;17.80;12.60;;;;;;;;;;5093448;28;20244;-60
2022/11/20 11:45:27;;;;;;;17.95;13.85;;;;;;;;;;5092321;28;20557;-61
2022/11/20 11:47:56;;;;;;;17.48;13.82;;;;;;;;;;5093327;28;20227;-62
2022/11/20 11:50:24;;;;;;;16.88;13.30;;;;;;;;;;5093488;28;20203;-60
2022/11/20 11:52:58;;;;;;;17.25;12.50;;;;;;;;;;5093606;28;20190;-60
2022/11/20 11:55:29;;;;;;;19.67;14.77;;;;;;;;;;5093075;28;20201;-60
2022/11/20 11:57:59;;;;;;;16.38;13.10;;;;;;;;;;5093187;28;20285;-61
2022/11/20 12:00:26;;;;;;;21.08;13.57;;;;;;;;;;5093078;28;20671;-61
2022/11/20 12:02:59;;;;;;;19.67;13.57;;;;;;;;;;5093131;28;20239;-60
2022/11/20 12:05:27;;;;;;;17.95;13.82;;;;;;;;;;5093213;28;20190;-60
2022/11/20 12:07:55;;;;;;;19.05;13.07;;;;;;;;;;5093073;28;20242;-60
2022/11/20 12:10:25;;;;;;;18.63;13.85;;;;;;;;;;5093036;28;20225;-61
2022/11/20 12:12:57;;;;;;;19.30;14.07;;;;;;;;;;5092995;28;20234;-60
2022/11/20 12:15:27;;;;;;;16.73;12.93;;;;;;;;;;5093106;28;20315;-60
2022/11/20 12:17:54;;;;;;;18.27;14.02;;;;;;;;;;5093095;28;20256;-60
2022/11/20 12:20:23;;;;;;;14.55;11.65;;;;;;;;;;5092982;28;20243;-61
2022/11/20 12:22:56;;;;;;;15.52;12.13;;;;;;;;;;5092828;28;20278;-60
2022/11/20 12:25:26;;;;;;;16.98;13.50;;;;;;;;;;5093099;28;20290;-61
2022/11/20 12:28:03;;;;;;;15.10;12.95;;;;;;;;;;5092938;28;20215;-61
2022/11/20 12:30:30;;;;;;;18.40;13.18;;;;;;;;;;5093012;28;20280;-60
2022/11/20 12:33:08;;;;;;;18.88;13.00;;;;;;;;;;5092909;28;20223;-60
2022/11/20 12:35:44;;;;;;;19.90;13.15;;;;;;;;;;5092801;28;20712;-60
2022/11/20 12:38:28;;;;;;;16.00;13.02;;;;;;;;;;5093278;28;20252;-60
2022/11/20 12:41:01;;;;;;;17.38;13.75;;;;;;;;;;5092796;28;20282;-61
2022/11/20 12:46:23;;;;;;;16.15;12.85;;;;;;;;;;5092633;28;20190;-62
2022/11/20 12:49:07;;;;;;;17.83;12.95;;;;;;;;;;5052490;28;20223;-61
2022/11/20 12:51:38;;;;;;;16.85;12.15;;;;;;;;;;5052478;28;20239;-61
2022/11/20 12:54:16;;;;;;;20.60;13.63;;;;;;;;;;5052337;28;20234;-60
2022/11/20 12:56:47;;;;;;;17.88;12.93;;;;;;;;;;5053897;28;20215;-61
2022/11/20 12:59:28;;;;;;;20.10;14.05;;;;;;;;;;5056424;28;20203;-60
2022/11/20 13:01:57;;;;;;;16.92;12.82;;;;;;;;;;5056348;28;20238;-60
2022/11/20 13:04:35;;;;;;;16.80;12.70;;;;;;;;;;5055989;28;20283;-61
2022/11/20 13:07:03;;;;;;;17.02;12.40;;;;;;;;;;5056393;28;20196;-61
2022/11/20 13:09:30;;;;;;;16.42;12.13;;;;;;;;;;5056342;28;20227;-61
2022/11/20 13:12:08;;;;;;;13.48;10.38;;;;;;;;;;5056149;28;20193;-60
2022/11/20 13:14:39;;;;;;;17.33;13.10;;;;;;;;;;5056021;28;20199;-61
2022/11/20 13:17:07;;;;;;;13.88;10.15;;;;;;;;;;5056000;28;20282;-61
2022/11/20 13:19:34;;;;;;;12.85;9.27;;;;;;;;;;5056134;28;20192;-62
2022/11/20 13:22:01;;;;;;;11.55;9.90;;;;;;;;;;5055970;28;20195;-60
2022/11/20 13:24:30;;;;;;;14.75;11.13;;;;;;;;;;5055624;28;20203;-60
2022/11/20 13:27:06;;;;;;;13.07;8.73;;;;;;;;;;5055809;28;20192;-60
2022/11/20 13:29:34;;;;;;;16.20;9.30;;;;;;;;;;5055621;28;20255;-61
2022/11/20 13:32:05;;;;;;;11.30;8.77;;;;;;;;;;5055644;28;20637;-61
2022/11/20 13:34:32;;;;;;;11.40;8.25;;;;;;;;;;5055840;28;20278;-61
2022/11/20 13:37:03;;;;;;;13.23;9.38;;;;;;;;;;5055580;28;20188;-60
2022/11/20 13:39:31;;;;;;;16.15;11.60;;;;;;;;;;5055802;28;20200;-60
2022/11/20 13:41:59;;;;;;;17.40;12.15;;;;;;;;;;5055551;28;20206;-61
2022/11/20 13:44:30;;;;;;;15.60;12.18;;;;;;;;;;5055637;28;20195;-61
2022/11/20 13:46:57;;;;;;;16.00;12.75;;;;;;;;;;5067217;28;20226;-62
2022/11/20 13:49:26;;;;;;;13.38;11.68;;;;;;;;;;5095712;28;20225;-61
2022/11/20 13:51:58;;;;;;;13.93;11.02;;;;;;;;;;5095570;28;20205;-61
2022/11/20 13:54:34;;;;;;;12.85;9.25;;;;;;;;;;5095511;28;20197;-61
2022/11/20 13:57:06;;;;;;;15.07;9.95;;;;;;;;;;5095473;28;20197;-60
2022/11/20 13:59:40;;;;;;;12.95;9.98;;;;;;;;;;5095571;28;20220;-61
2022/11/20 14:02:12;;;;;;;13.65;10.13;;;;;;;;;;5095540;28;20201;-61
2022/11/20 14:04:44;;;;;;;20.42;16.23;;;;;;;;;;5095288;28;20655;-60
2022/11/20 14:07:11;;;;;;;15.43;13.55;;;;;;;;;;5095181;28;20739;-61
2022/11/20 14:09:38;;;;;;;16.58;11.82;;;;;;;;;;5094321;28;20574;-61
2022/11/20 14:12:05;;;;;;;13.32;10.10;;;;;;;;;;5095158;28;20273;-60
2022/11/20 14:14:36;;;;;;;11.77;10.02;;;;;;;;;;5095087;28;20239;-60
2022/11/20 14:17:08;;;;;;;15.32;10.50;;;;;;;;;;5095041;28;20191;-60
2022/11/20 14:19:37;;;;;;;14.23;11.93;;;;;;;;;;5094948;28;20768;-60
2022/11/20 14:22:11;;;;;;;16.70;14.15;;;;;;;;;;5095230;28;20200;-60
2022/11/20 14:24:38;;;;;;;22.20;19.83;;;;;;;;;;5094970;28;20197;-60
2022/11/20 14:27:06;;;;;;;16.73;15.02;;;;;;;;;;5094976;28;20187;-61
2022/11/20 14:29:36;;;;;;;21.05;18.17;;;;;;;;;;5094861;28;20210;-60
2022/11/20 14:32:03;;;;;;;18.92;15.25;;;;;;;;;;5094957;28;20711;-61
2022/11/20 14:34:33;;;;;;;18.73;16.70;;;;;;;;;;5094839;28;20559;-61
2022/11/20 14:37:01;;;;;;;17.75;13.65;;;;;;;;;;5094888;28;20191;-61